createdAt,value
2019-05-07T00:02:24.277Z,90.70
2019-05-07T00:04:55.731Z,91.00
2019-05-07T00:07:29.227Z,91.30
2019-05-07T00:10:03.386Z,91.30
2019-05-07T00:12:32.849Z,91.40
2019-05-07T00:15:04.658Z,91.50
2019-05-07T00:17:33.286Z,91.70
2019-05-07T00:20:08.526Z,91.90
2019-05-07T00:22:37.417Z,92.10
2019-05-07T00:25:12.392Z,92.20
2019-05-07T00:27:44.619Z,92.40
2019-05-07T00:30:16.069Z,92.40
2019-05-07T00:32:47.640Z,92.70
2019-05-07T00:35:32.292Z,92.90
2019-05-07T00:38:05.683Z,93.00
2019-05-07T00:40:44.885Z,93.30
2019-05-07T00:43:15.540Z,93.30
2019-05-07T00:45:52.926Z,93.50
2019-05-07T00:48:23.432Z,93.40
2019-05-07T00:50:57.368Z,93.50
2019-05-07T00:53:26.467Z,93.60
2019-05-07T00:55:57.914Z,93.60
2019-05-07T00:58:32.641Z,93.70
2019-05-07T01:01:04.705Z,93.80
2019-05-07T01:03:36.155Z,94.00
2019-05-07T01:06:06.172Z,94.20
2019-05-07T01:08:42.958Z,94.30
2019-05-07T01:11:13.188Z,94.50
2019-05-07T01:13:43.184Z,94.60
2019-05-07T01:16:17.907Z,94.70
2019-05-07T01:18:49.978Z,94.80
2019-05-07T01:21:19.870Z,94.80
2019-05-07T01:23:54.823Z,94.90
2019-05-07T01:26:23.693Z,95.10
2019-05-07T01:29:02.863Z,95.20
2019-05-07T01:31:37.136Z,95.30
2019-05-07T01:34:07.692Z,95.50
2019-05-07T01:36:38.505Z,95.50
2019-05-07T01:39:09.953Z,95.70
2019-05-07T01:41:45.190Z,95.90
2019-05-07T01:44:17.282Z,96.20
2019-05-07T01:46:49.449Z,96.20
2019-05-07T01:49:21.001Z,96.30
2019-05-07T01:51:53.022Z,96.50
2019-05-07T01:54:24.107Z,96.70
2019-05-07T01:56:53.847Z,96.70
2019-05-07T01:59:23.612Z,96.90
2019-05-07T02:01:56.926Z,97.00
2019-05-07T02:04:32.544Z,97.00
2019-05-07T02:07:17.029Z,97.10
2019-05-07T02:09:51.786Z,97.10
2019-05-07T02:12:22.229Z,97.10
2019-05-07T02:14:53.071Z,97.20
2019-05-07T02:17:23.740Z,97.40
2019-05-07T02:19:55.822Z,97.50
2019-05-07T02:22:32.027Z,97.70
2019-05-07T02:25:03.831Z,97.80
2019-05-07T02:27:33.623Z,98.00
2019-05-07T02:30:04.251Z,98.20
2019-05-07T02:32:36.248Z,98.40
2019-05-07T02:35:08.077Z,98.50
2019-05-07T02:37:48.262Z,99.00
2019-05-07T02:40:22.692Z,98.80
2019-05-07T02:42:53.970Z,98.80
2019-05-07T02:45:29.575Z,98.80
2019-05-07T02:47:59.590Z,98.90
2019-05-07T02:50:35.746Z,98.90
2019-05-07T02:53:27.373Z,99.00
2019-05-07T02:56:03.329Z,99.00
2019-05-07T02:58:33.147Z,99.10
2019-05-07T03:01:04.785Z,99.20
2019-05-07T03:03:34.591Z,99.40
2019-05-07T03:06:09.228Z,99.70
2019-05-07T03:08:43.862Z,99.80
2019-05-07T03:11:14.132Z,99.90
2019-05-07T03:13:44.898Z,99.90
2019-05-07T03:16:13.785Z,99.90
2019-05-07T03:18:43.798Z,99.90
2019-05-07T03:21:17.319Z,99.90
2019-05-07T03:23:54.064Z,99.90
2019-05-07T03:26:33.940Z,99.90
2019-05-07T03:29:04.020Z,99.90
2019-05-07T03:31:47.376Z,99.90
2019-05-07T03:34:18.335Z,99.90
2019-05-07T03:36:56.462Z,99.90
2019-05-07T03:39:24.082Z,99.90
2019-05-07T03:41:53.278Z,99.90
2019-05-07T03:44:33.863Z,99.90
2019-05-07T03:47:16.896Z,99.90
2019-05-07T03:49:48.738Z,99.90
2019-05-07T03:52:18.752Z,99.90
2019-05-07T03:54:47.510Z,99.90
2019-05-07T03:57:23.763Z,99.90
2019-05-07T04:00:04.192Z,99.90
2019-05-07T04:02:33.367Z,99.90
2019-05-07T04:05:04.372Z,99.90
2019-05-07T04:07:33.562Z,99.90
2019-05-07T04:10:10.126Z,99.90
2019-05-07T04:12:39.359Z,99.90
2019-05-07T04:15:19.530Z,99.90
2019-05-07T04:17:53.591Z,99.90
2019-05-07T04:20:36.879Z,99.90
2019-05-07T04:23:05.751Z,99.90
2019-05-07T04:25:58.391Z,99.90
2019-05-07T04:28:29.051Z,99.90
2019-05-07T04:31:02.930Z,99.90
2019-05-07T04:33:39.458Z,99.90
2019-05-07T04:36:14.102Z,99.90
2019-05-07T04:38:45.837Z,99.90
2019-05-07T04:41:14.609Z,99.90
2019-05-07T04:43:43.755Z,99.90
2019-05-07T04:46:18.485Z,99.90
2019-05-07T04:48:47.318Z,99.90
2019-05-07T04:51:17.793Z,99.90
2019-05-07T04:53:46.557Z,99.90
2019-05-07T04:56:15.447Z,99.90
2019-05-07T04:58:45.241Z,99.90
2019-05-07T05:01:15.691Z,99.90
2019-05-07T05:03:44.524Z,99.90
2019-05-07T05:06:13.841Z,99.90
2019-05-07T05:08:43.656Z,99.90
2019-05-07T05:11:13.040Z,99.90
2019-05-07T05:13:44.524Z,99.90
2019-05-07T05:16:27.410Z,99.90
2019-05-07T05:19:02.547Z,99.90
2019-05-07T05:21:52.849Z,99.90
2019-05-07T05:24:35.242Z,99.90
2019-05-07T05:27:06.692Z,99.90
2019-05-07T05:29:39.280Z,99.90
2019-05-07T05:32:13.998Z,99.90
2019-05-07T05:34:45.434Z,99.90
2019-05-07T05:37:17.284Z,99.90
2019-05-07T05:40:04.861Z,99.90
2019-05-07T05:42:29.838Z,99.90
2019-05-07T05:44:58.700Z,99.90
2019-05-07T05:47:28.746Z,99.90
2019-05-07T05:49:57.532Z,99.90
2019-05-07T05:52:28.968Z,99.90
2019-05-07T05:54:59.409Z,99.90
2019-05-07T05:57:32.117Z,99.90
2019-05-07T06:00:04.628Z,99.90
2019-05-07T06:02:54.429Z,99.90
2019-05-07T06:05:41.608Z,99.90
2019-05-07T06:08:28.583Z,99.90
2019-05-07T06:11:14.440Z,99.90
2019-05-07T06:13:52.666Z,99.90
2019-05-07T06:16:29.138Z,99.90
2019-05-07T06:19:08.679Z,99.90
2019-05-07T06:21:55.490Z,99.90
2019-05-07T06:24:37.759Z,99.90
2019-05-07T06:27:07.721Z,99.90
2019-05-07T06:29:37.624Z,99.90
2019-05-07T06:32:13.964Z,99.90
2019-05-07T06:34:48.596Z,99.90
2019-05-07T06:37:20.066Z,99.90
2019-05-07T06:40:05.217Z,99.90
2019-05-07T06:42:42.781Z,99.90
2019-05-07T06:45:16.264Z,99.90
2019-05-07T06:47:45.104Z,99.90
2019-05-07T06:50:13.988Z,99.90
2019-05-07T06:52:42.813Z,99.90
2019-05-07T06:55:14.848Z,99.90
2019-05-07T06:57:43.681Z,99.90
2019-05-07T07:00:16.032Z,99.90
2019-05-07T07:03:05.817Z,99.90
2019-05-07T07:05:36.355Z,99.90
2019-05-07T07:08:17.641Z,99.90
2019-05-07T07:11:04.749Z,99.90
2019-05-07T07:13:33.668Z,99.90
2019-05-07T07:16:02.479Z,99.90
2019-05-07T07:18:48.605Z,99.90
2019-05-07T07:21:13.247Z,99.90
2019-05-07T07:23:42.994Z,99.90
2019-05-07T07:26:12.645Z,99.90
2019-05-07T07:28:42.974Z,99.90
2019-05-07T07:31:29.050Z,99.90
2019-05-07T07:34:01.959Z,99.90
2019-05-07T07:36:32.143Z,99.90
2019-05-07T07:39:02.075Z,99.90
2019-05-07T07:41:33.705Z,99.90
2019-05-07T07:44:05.171Z,99.90
2019-05-07T07:46:42.280Z,99.90
2019-05-07T07:49:14.946Z,99.90
2019-05-07T07:51:45.175Z,99.90
2019-05-07T07:54:13.088Z,99.40
2019-05-07T07:57:02.378Z,98.90
2019-05-07T07:59:42.118Z,99.00
2019-05-07T08:02:18.031Z,99.10
2019-05-07T08:04:46.856Z,99.00
2019-05-07T08:07:22.847Z,99.10
2019-05-07T08:09:52.098Z,99.00
2019-05-07T08:12:22.169Z,98.80
2019-05-07T08:14:51.981Z,98.60
2019-05-07T08:17:22.520Z,98.40
2019-05-07T08:19:52.679Z,98.70
2019-05-07T08:22:22.570Z,98.60
2019-05-07T08:24:54.762Z,98.20
2019-05-07T08:27:29.360Z,97.60
2019-05-07T08:29:58.149Z,97.80
2019-05-07T08:32:44.777Z,97.30
2019-05-07T08:35:23.605Z,97.10
2019-05-07T08:37:55.519Z,96.50
2019-05-07T08:40:24.371Z,95.90
2019-05-07T08:42:56.631Z,95.50
2019-05-07T08:45:43.404Z,95.40
2019-05-07T08:48:16.496Z,94.70
2019-05-07T08:50:45.433Z,94.00
2019-05-07T08:53:17.282Z,93.60
2019-05-07T08:55:46.048Z,93.50
2019-05-07T08:58:17.941Z,92.90
2019-05-07T09:00:49.375Z,92.00
2019-05-07T09:03:39.108Z,91.70
2019-05-07T09:06:07.936Z,91.10
2019-05-07T09:08:37.755Z,89.90
2019-05-07T09:11:09.171Z,86.10
2019-05-07T09:13:37.988Z,83.50
2019-05-07T09:16:06.757Z,82.50
2019-05-07T09:18:35.524Z,81.10
2019-05-07T09:21:04.360Z,79.50
2019-05-07T09:23:38.984Z,78.10
2019-05-07T09:26:13.028Z,75.50
2019-05-07T09:28:59.877Z,70.20
2019-05-07T09:31:33.111Z,66.00
2019-05-07T09:34:02.640Z,65.60
2019-05-07T09:36:42.462Z,64.80
2019-05-07T09:39:12.124Z,62.50
2019-05-07T09:41:41.786Z,59.40
2019-05-07T09:44:11.925Z,58.80
2019-05-07T09:46:42.914Z,56.60
2019-05-07T09:49:12.059Z,56.20
2019-05-07T09:51:42.700Z,56.90
2019-05-07T09:54:17.493Z,56.60
2019-05-07T09:56:49.746Z,56.20
2019-05-07T09:59:22.545Z,57.10
2019-05-07T10:01:57.557Z,58.80
2019-05-07T10:04:29.031Z,59.90
2019-05-07T10:07:02.561Z,60.40
2019-05-07T10:09:37.260Z,61.30
2019-05-07T10:12:28.955Z,61.60
2019-05-07T10:14:57.953Z,61.70
2019-05-07T10:17:28.605Z,61.30
2019-05-07T10:20:03.138Z,60.90
2019-05-07T10:22:34.376Z,59.40
2019-05-07T10:25:09.001Z,58.60
2019-05-07T10:27:41.823Z,58.30
2019-05-07T10:30:12.636Z,55.90
2019-05-07T10:32:42.188Z,54.20
2019-05-07T10:35:13.078Z,54.80
2019-05-07T10:37:42.808Z,54.80
2019-05-07T10:40:12.589Z,54.20
2019-05-07T10:42:43.059Z,53.40
2019-05-07T10:45:26.095Z,53.10
2019-05-07T10:47:56.484Z,51.50
2019-05-07T10:50:37.959Z,48.90
2019-05-07T10:52:57.382Z,48.00
2019-05-07T10:55:26.156Z,47.70
2019-05-07T10:57:54.916Z,48.10
2019-05-07T11:00:26.446Z,49.50
2019-05-07T11:02:58.220Z,49.90
2019-05-07T11:05:27.027Z,50.30
2019-05-07T11:07:55.851Z,50.80
2019-05-07T11:10:24.617Z,49.50
2019-05-07T11:13:02.111Z,49.10
2019-05-07T11:15:35.367Z,48.70
2019-05-07T11:18:22.205Z,47.70
2019-05-07T11:20:53.334Z,46.10
2019-05-07T11:23:22.243Z,45.60
2019-05-07T11:25:52.676Z,44.40
2019-05-07T11:28:22.678Z,44.70
2019-05-07T11:30:52.635Z,44.60
2019-05-07T11:33:22.042Z,45.00
2019-05-07T11:35:52.790Z,45.40
2019-05-07T11:38:24.997Z,45.80
2019-05-07T11:40:55.956Z,45.80
2019-05-07T11:43:26.367Z,45.40
2019-05-07T11:45:58.940Z,45.80
2019-05-07T11:48:28.122Z,46.20
2019-05-07T11:51:03.689Z,45.60
2019-05-07T11:53:32.724Z,44.50
2019-05-07T11:56:02.579Z,43.70
2019-05-07T11:58:37.495Z,42.90
2019-05-07T12:01:08.895Z,42.80
2019-05-07T12:03:43.412Z,43.20
2019-05-07T12:06:13.236Z,43.70
2019-05-07T12:08:49.818Z,44.70
2019-05-07T12:11:18.189Z,44.30
2019-05-07T12:13:47.033Z,44.30
2019-05-07T12:16:15.804Z,45.10
2019-05-07T12:18:44.643Z,45.50
2019-05-07T12:21:21.105Z,44.80
2019-05-07T12:23:48.026Z,43.60
2019-05-07T12:26:16.894Z,43.50
2019-05-07T12:28:45.672Z,43.40
2019-05-07T12:31:16.079Z,43.40
2019-05-07T12:33:49.485Z,42.70
2019-05-07T12:36:24.232Z,42.70
2019-05-07T12:38:55.027Z,42.80
2019-05-07T12:41:34.125Z,43.30
2019-05-07T12:44:06.051Z,43.60
2019-05-07T12:46:35.040Z,43.70
2019-05-07T12:49:11.768Z,44.40
2019-05-07T12:51:42.703Z,45.20
2019-05-07T12:54:20.242Z,45.60
2019-05-07T12:56:55.088Z,45.90
2019-05-07T12:59:23.900Z,45.70
2019-05-07T13:01:54.359Z,45.40
2019-05-07T13:04:25.760Z,46.10
2019-05-07T13:06:58.724Z,46.20
2019-05-07T13:09:27.571Z,46.40
2019-05-07T13:12:03.006Z,46.50
2019-05-07T13:14:34.067Z,46.60
2019-05-07T13:17:05.489Z,49.70
2019-05-07T13:19:34.261Z,51.50
2019-05-07T13:22:03.100Z,52.10
2019-05-07T13:24:32.857Z,52.40
2019-05-07T13:27:03.303Z,52.20
2019-05-07T13:29:37.956Z,53.10
2019-05-07T13:32:09.364Z,53.60
2019-05-07T13:34:38.140Z,53.80
2019-05-07T13:37:17.596Z,54.20
2019-05-07T13:39:52.038Z,54.80
2019-05-07T13:42:38.532Z,55.70
2019-05-07T13:45:11.954Z,56.50
2019-05-07T13:47:44.236Z,57.30
2019-05-07T13:50:13.975Z,57.50
2019-05-07T13:52:43.440Z,58.20
2019-05-07T13:55:12.942Z,58.70
2019-05-07T13:57:41.784Z,59.50
2019-05-07T14:00:13.109Z,60.00
2019-05-07T14:02:42.882Z,60.70
2019-05-07T14:05:14.523Z,61.10
2019-05-07T14:07:49.371Z,61.50
2019-05-07T14:10:24.194Z,61.50
2019-05-07T14:12:53.093Z,61.00
2019-05-07T14:15:27.818Z,60.30
2019-05-07T14:18:02.417Z,61.00
2019-05-07T14:20:33.067Z,61.10
2019-05-07T14:23:01.855Z,61.20
2019-05-07T14:25:33.681Z,61.10
2019-05-07T14:28:02.468Z,61.10
2019-05-07T14:30:32.773Z,61.00
2019-05-07T14:33:08.340Z,60.60
2019-05-07T14:35:45.611Z,59.60
2019-05-07T14:38:22.669Z,59.80
2019-05-07T14:40:52.041Z,60.30
2019-05-07T14:43:25.291Z,60.90
2019-05-07T14:45:54.239Z,61.10
2019-05-07T14:48:23.023Z,61.10
2019-05-07T14:50:53.079Z,61.10
2019-05-07T14:53:22.562Z,61.40
2019-05-07T14:55:51.344Z,61.90
2019-05-07T14:58:26.065Z,62.40
2019-05-07T15:00:57.596Z,63.00
2019-05-07T15:03:26.363Z,63.10
2019-05-07T15:05:55.356Z,63.20
2019-05-07T15:08:24.188Z,63.20
2019-05-07T15:10:59.238Z,62.60
2019-05-07T15:13:28.315Z,62.50
2019-05-07T15:16:03.200Z,61.20
2019-05-07T15:18:42.805Z,62.00
2019-05-07T15:21:12.539Z,62.80
2019-05-07T15:23:43.969Z,62.90
2019-05-07T15:26:43.372Z,62.70
2019-05-07T15:29:15.434Z,63.50
2019-05-07T15:32:00.813Z,63.90
2019-05-07T15:34:29.648Z,64.80
2019-05-07T15:37:01.657Z,64.20
2019-05-07T15:39:36.503Z,63.70
2019-05-07T15:42:05.676Z,63.40
2019-05-07T15:44:34.455Z,63.90
2019-05-07T15:47:04.921Z,64.70
2019-05-07T15:49:33.904Z,65.40
2019-05-07T15:52:04.333Z,65.60
2019-05-07T15:54:35.166Z,65.70
2019-05-07T15:57:08.587Z,65.70
2019-05-07T15:59:41.805Z,63.80
2019-05-07T16:02:24.792Z,63.40
2019-05-07T16:04:53.608Z,62.00
2019-05-07T16:07:22.608Z,62.00
2019-05-07T16:09:57.506Z,61.90
2019-05-07T16:12:26.341Z,62.60
2019-05-07T16:14:55.129Z,63.60
2019-05-07T16:17:27.706Z,64.70
2019-05-07T16:20:03.130Z,64.20
2019-05-07T16:22:35.009Z,64.40
2019-05-07T16:25:07.170Z,64.10
2019-05-07T16:27:36.444Z,64.00
2019-05-07T16:30:06.976Z,64.70
2019-05-07T16:32:35.746Z,65.10
2019-05-07T16:35:05.860Z,65.70
2019-05-07T16:37:37.296Z,64.50
2019-05-07T16:40:08.709Z,64.20
2019-05-07T16:42:38.147Z,64.10
2019-05-07T16:45:09.113Z,64.40
2019-05-07T16:47:37.986Z,65.00
2019-05-07T16:50:08.025Z,66.10
2019-05-07T16:52:36.966Z,66.40
2019-05-07T16:55:12.097Z,67.30
2019-05-07T16:57:44.705Z,67.80
2019-05-07T17:00:15.432Z,68.60
2019-05-07T17:02:51.566Z,69.00
2019-05-07T17:05:22.843Z,69.10
2019-05-07T17:07:56.003Z,69.10
2019-05-07T17:10:27.482Z,69.30
2019-05-07T17:13:17.644Z,69.70
2019-05-07T17:15:59.269Z,69.70
2019-05-07T17:18:34.001Z,70.10
2019-05-07T17:21:03.901Z,70.20
2019-05-07T17:23:43.930Z,70.40
2019-05-07T17:26:12.206Z,71.00
2019-05-07T17:28:42.578Z,71.80
2019-05-07T17:31:12.415Z,72.40
2019-05-07T17:33:42.481Z,72.60
2019-05-07T17:36:12.071Z,71.10
2019-05-07T17:38:42.872Z,71.30
2019-05-07T17:41:19.907Z,71.60
2019-05-07T17:43:42.239Z,72.20
2019-05-07T17:46:12.286Z,72.70
2019-05-07T17:48:42.808Z,73.00
2019-05-07T17:51:16.572Z,73.30
2019-05-07T17:53:57.573Z,73.60
2019-05-07T17:56:22.755Z,73.90
2019-05-07T17:58:57.371Z,74.50
2019-05-07T18:01:32.673Z,74.50
2019-05-07T18:04:07.161Z,74.60
2019-05-07T18:06:38.636Z,74.90
2019-05-07T18:09:07.743Z,75.00
2019-05-07T18:11:36.597Z,74.90
2019-05-07T18:14:05.366Z,74.50
2019-05-07T18:16:36.780Z,72.90
2019-05-07T18:19:05.664Z,72.50
2019-05-07T18:21:34.441Z,72.30
2019-05-07T18:24:13.048Z,72.40
2019-05-07T18:26:34.083Z,71.80
2019-05-07T18:29:02.964Z,72.30
2019-05-07T18:31:45.336Z,71.90
2019-05-07T18:34:14.226Z,72.00
2019-05-07T18:36:42.993Z,72.00
2019-05-07T18:39:11.902Z,72.00
2019-05-07T18:41:41.720Z,72.10
2019-05-07T18:44:15.349Z,72.10
2019-05-07T18:46:43.195Z,72.20
2019-05-07T18:49:12.772Z,72.40
2019-05-07T18:51:42.649Z,72.50
2019-05-07T18:54:13.282Z,72.50
2019-05-07T18:56:42.432Z,72.60
2019-05-07T18:59:12.244Z,72.70
2019-05-07T19:01:42.974Z,72.60
2019-05-07T19:04:12.895Z,72.60
2019-05-07T19:06:42.436Z,72.80
2019-05-07T19:09:11.700Z,72.90
2019-05-07T19:11:42.588Z,73.10
2019-05-07T19:14:13.256Z,73.00
2019-05-07T19:16:43.067Z,73.10
2019-05-07T19:19:12.550Z,73.10
2019-05-07T19:21:42.307Z,73.50
2019-05-07T19:24:11.572Z,73.80
2019-05-07T19:26:42.108Z,74.00
2019-05-07T19:29:12.488Z,74.20
2019-05-07T19:31:42.050Z,74.40
2019-05-07T19:34:12.289Z,74.70
2019-05-07T19:36:42.409Z,75.10
2019-05-07T19:39:12.645Z,75.60
2019-05-07T19:41:43.044Z,75.80
2019-05-07T19:44:12.714Z,76.10
2019-05-07T19:46:41.690Z,76.30
2019-05-07T19:49:10.473Z,76.60
2019-05-07T19:51:39.247Z,76.80
2019-05-07T19:54:08.207Z,76.70
2019-05-07T19:56:37.713Z,76.80
2019-05-07T19:59:06.581Z,76.90
2019-05-07T20:01:37.111Z,77.00
2019-05-07T20:04:06.017Z,76.90
2019-05-07T20:06:34.809Z,77.00
2019-05-07T20:09:12.015Z,77.00
2019-05-07T20:11:46.787Z,77.00
2019-05-07T20:14:15.603Z,77.20
2019-05-07T20:16:46.052Z,77.10
2019-05-07T20:19:14.829Z,77.20
2019-05-07T20:21:52.368Z,77.30
2019-05-07T20:24:21.928Z,77.40
2019-05-07T20:26:52.651Z,77.70
2019-05-07T20:29:22.904Z,77.70
2019-05-07T20:31:53.206Z,78.00
2019-05-07T20:34:22.404Z,77.90
2019-05-07T20:36:51.854Z,77.90
2019-05-07T20:39:23.114Z,77.80
2019-05-07T20:41:52.624Z,77.60
2019-05-07T20:44:21.655Z,77.70
2019-05-07T20:46:50.447Z,77.90
2019-05-07T20:49:19.329Z,77.80
2019-05-07T20:51:48.195Z,77.90
2019-05-07T20:54:18.826Z,78.00
2019-05-07T20:56:49.253Z,77.90
2019-05-07T20:59:18.269Z,78.00
2019-05-07T21:01:47.141Z,78.00
2019-05-07T21:04:16.053Z,78.10
2019-05-07T21:06:44.863Z,78.00
2019-05-07T21:09:13.640Z,78.20
2019-05-07T21:11:43.027Z,78.50
2019-05-07T21:14:12.242Z,78.70
2019-05-07T21:16:42.477Z,78.90
2019-05-07T21:19:12.778Z,79.00
2019-05-07T21:21:42.291Z,79.20
2019-05-07T21:24:13.044Z,79.40
2019-05-07T21:26:42.379Z,79.40
2019-05-07T21:29:13.795Z,79.80
2019-05-07T21:31:43.113Z,79.90
2019-05-07T21:34:12.603Z,80.20
2019-05-07T21:36:43.236Z,80.50
2019-05-07T21:39:13.020Z,80.80
2019-05-07T21:41:42.719Z,81.00
2019-05-07T21:44:11.893Z,81.40
2019-05-07T21:46:42.517Z,81.40
2019-05-07T21:49:12.226Z,81.70
2019-05-07T21:51:41.558Z,81.80
2019-05-07T21:54:20.562Z,82.10
2019-05-07T21:56:52.249Z,82.20
2019-05-07T21:59:23.262Z,82.30
2019-05-07T22:02:02.057Z,82.40
2019-05-07T22:04:30.481Z,82.50
2019-05-07T22:06:59.271Z,82.60
2019-05-07T22:09:28.344Z,82.70
2019-05-07T22:11:57.255Z,82.70
2019-05-07T22:14:26.131Z,82.90
2019-05-07T22:16:54.949Z,83.00
2019-05-07T22:19:24.850Z,83.10
2019-05-07T22:21:53.739Z,83.20
2019-05-07T22:24:22.615Z,83.40
2019-05-07T22:26:51.408Z,83.50
2019-05-07T22:29:22.562Z,83.60
2019-05-07T22:32:09.072Z,83.90
2019-05-07T22:34:42.566Z,84.20
2019-05-07T22:37:12.561Z,84.40
2019-05-07T22:39:41.679Z,84.80
2019-05-07T22:42:11.852Z,85.10
2019-05-07T22:44:42.558Z,85.50
2019-05-07T22:47:22.747Z,85.50
2019-05-07T22:49:53.656Z,85.70
2019-05-07T22:52:22.529Z,85.80
2019-05-07T22:54:51.611Z,85.90
2019-05-07T22:57:25.191Z,85.80
2019-05-07T22:59:53.960Z,85.90
2019-05-07T23:02:23.094Z,86.10
2019-05-07T23:04:52.169Z,86.20
2019-05-07T23:07:27.025Z,86.10
2019-05-07T23:09:56.009Z,86.20
2019-05-07T23:12:26.451Z,86.20
2019-05-07T23:14:56.349Z,86.30
2019-05-07T23:17:25.239Z,86.30
2019-05-07T23:19:55.108Z,86.40
2019-05-07T23:22:24.352Z,86.60
2019-05-07T23:24:53.242Z,86.60
2019-05-07T23:27:22.610Z,86.80
2019-05-07T23:29:52.998Z,86.90
2019-05-07T23:32:22.241Z,87.20
2019-05-07T23:34:52.755Z,87.40
2019-05-07T23:37:22.447Z,87.50
2019-05-07T23:39:59.053Z,87.70
2019-05-07T23:42:47.737Z,87.80
2019-05-07T23:45:16.541Z,87.90
2019-05-07T23:47:45.332Z,88.10
2019-05-07T23:50:14.193Z,88.00
2019-05-07T23:52:44.169Z,89.00
2019-05-07T23:55:13.307Z,88.10
2019-05-07T23:57:43.084Z,88.20
